Aberdeen, California
Current Conditions -  °F | °C
As of 3:56 AM on Saturday 25 Oct 2014 (Local Time) from KBIH Reporting Station
Clear Clear  
Wind Chill: 63°   Ceiling: Unl
Heat Index: 63°   Visibility: 10mi
Dew Point: 25°   Wind: 13mph
Humidity: 24%   Direction: 130°SE
Pressure: 29.96"   Gusts: NA
Location:  36.9237°N, 117.897°W
Report Text: KBIH 251056Z AUTO 13011KT 10SM CLR 17/M04 A2996 RMK AO2 SLP098 T01721039
Loading
Personal Weather Stations






























Interactive Weather Map
Tropical Storm Tracking
New forecast layout! Learn more

10-Day Weather Forecast

Advertisements
Track Severe Weather on mobile